sensor_id;sensor_type;location;lat;lon;timestamp;temperature;humidity
12408;DHT22;6268;48.188;17.134;2022-08-23T00:00:44;17.20;99.90
12408;DHT22;6268;48.188;17.134;2022-08-23T00:03:17;17.20;99.90
12408;DHT22;6268;48.188;17.134;2022-08-23T00:05:46;17.20;99.90
12408;DHT22;6268;48.188;17.134;2022-08-23T00:08:14;17.20;99.90
12408;DHT22;6268;48.188;17.134;2022-08-23T00:10:43;17.20;99.90
12408;DHT22;6268;48.188;17.134;2022-08-23T00:13:12;17.10;99.90
12408;DHT22;6268;48.188;17.134;2022-08-23T00:15:40;17.20;99.90
12408;DHT22;6268;48.188;17.134;2022-08-23T00:18:09;17.10;99.90
12408;DHT22;6268;48.188;17.134;2022-08-23T00:20:41;17.10;99.90
12408;DHT22;6268;48.188;17.134;2022-08-23T00:23:10;17.10;99.90
12408;DHT22;6268;48.188;17.134;2022-08-23T00:25:39;17.10;99.90
12408;DHT22;6268;48.188;17.134;2022-08-23T00:28:08;17.10;99.90
12408;DHT22;6268;48.188;17.134;2022-08-23T00:30:40;17.10;99.90
12408;DHT22;6268;48.188;17.134;2022-08-23T00:33:09;17.10;99.90
12408;DHT22;6268;48.188;17.134;2022-08-23T00:35:38;17.10;99.90
12408;DHT22;6268;48.188;17.134;2022-08-23T00:38:09;17.10;99.90
12408;DHT22;6268;48.188;17.134;2022-08-23T00:40:58;17.10;99.90
12408;DHT22;6268;48.188;17.134;2022-08-23T00:43:28;17.10;99.90
12408;DHT22;6268;48.188;17.134;2022-08-23T00:46:27;17.10;99.90
12408;DHT22;6268;48.188;17.134;2022-08-23T00:49:24;17.10;99.90
12408;DHT22;6268;48.188;17.134;2022-08-23T00:52:01;17.10;99.90
12408;DHT22;6268;48.188;17.134;2022-08-23T00:54:36;17.10;99.90
12408;DHT22;6268;48.188;17.134;2022-08-23T00:57:12;17.10;99.90
12408;DHT22;6268;48.188;17.134;2022-08-23T00:59:44;17.10;99.90
12408;DHT22;6268;48.188;17.134;2022-08-23T01:02:13;17.10;99.90
12408;DHT22;6268;48.188;17.134;2022-08-23T01:04:45;17.10;99.90
12408;DHT22;6268;48.188;17.134;2022-08-23T01:07:27;17.10;99.90
12408;DHT22;6268;48.188;17.134;2022-08-23T01:10:08;17.10;99.90
12408;DHT22;6268;48.188;17.134;2022-08-23T01:12:51;17.10;99.90
12408;DHT22;6268;48.188;17.134;2022-08-23T01:15:25;17.10;99.90
12408;DHT22;6268;48.188;17.134;2022-08-23T01:18:01;17.10;99.90
12408;DHT22;6268;48.188;17.134;2022-08-23T01:20:36;17.10;99.90
12408;DHT22;6268;48.188;17.134;2022-08-23T01:23:27;17.10;99.90
12408;DHT22;6268;48.188;17.134;2022-08-23T01:25:58;17.10;99.90
12408;DHT22;6268;48.188;17.134;2022-08-23T01:28:28;17.10;99.90
12408;DHT22;6268;48.188;17.134;2022-08-23T01:30:57;17.10;99.90
12408;DHT22;6268;48.188;17.134;2022-08-23T01:33:26;17.10;99.90
12408;DHT22;6268;48.188;17.134;2022-08-23T01:35:56;17.10;99.90
12408;DHT22;6268;48.188;17.134;2022-08-23T01:38:31;17.10;99.90
12408;DHT22;6268;48.188;17.134;2022-08-23T01:41:01;17.10;99.90
12408;DHT22;6268;48.188;17.134;2022-08-23T01:43:30;17.10;99.90
12408;DHT22;6268;48.188;17.134;2022-08-23T01:46:06;17.10;99.90
12408;DHT22;6268;48.188;17.134;2022-08-23T01:48:36;17.10;99.90
12408;DHT22;6268;48.188;17.134;2022-08-23T01:51:05;17.10;99.90
12408;DHT22;6268;48.188;17.134;2022-08-23T01:53:36;17.10;99.90
12408;DHT22;6268;48.188;17.134;2022-08-23T01:56:06;17.00;99.90
12408;DHT22;6268;48.188;17.134;2022-08-23T01:58:35;17.00;99.90
12408;DHT22;6268;48.188;17.134;2022-08-23T02:01:05;17.10;99.90
12408;DHT22;6268;48.188;17.134;2022-08-23T02:03:33;17.00;99.90
12408;DHT22;6268;48.188;17.134;2022-08-23T02:06:04;17.00;99.90
12408;DHT22;6268;48.188;17.134;2022-08-23T02:08:33;17.10;99.90
12408;DHT22;6268;48.188;17.134;2022-08-23T02:11:22;17.10;99.90
12408;DHT22;6268;48.188;17.134;2022-08-23T02:13:54;17.00;99.90
12408;DHT22;6268;48.188;17.134;2022-08-23T02:16:27;17.00;99.90
12408;DHT22;6268;48.188;17.134;2022-08-23T02:18:58;17.00;99.90
12408;DHT22;6268;48.188;17.134;2022-08-23T02:21:28;17.00;99.90
12408;DHT22;6268;48.188;17.134;2022-08-23T02:23:58;16.90;99.90
12408;DHT22;6268;48.188;17.134;2022-08-23T02:26:28;16.90;99.90
12408;DHT22;6268;48.188;17.134;2022-08-23T02:28:57;16.90;99.90
12408;DHT22;6268;48.188;17.134;2022-08-23T02:31:26;16.90;99.90
12408;DHT22;6268;48.188;17.134;2022-08-23T02:33:55;16.90;99.90
12408;DHT22;6268;48.188;17.134;2022-08-23T02:36:24;16.90;99.90
12408;DHT22;6268;48.188;17.134;2022-08-23T02:38:54;16.90;99.90
12408;DHT22;6268;48.188;17.134;2022-08-23T02:41:23;16.90;99.90
12408;DHT22;6268;48.188;17.134;2022-08-23T02:43:53;16.90;99.90
12408;DHT22;6268;48.188;17.134;2022-08-23T02:46:22;16.90;99.90
12408;DHT22;6268;48.188;17.134;2022-08-23T02:48:52;16.90;99.90
12408;DHT22;6268;48.188;17.134;2022-08-23T02:51:22;16.90;99.90
12408;DHT22;6268;48.188;17.134;2022-08-23T02:53:51;16.90;99.90
12408;DHT22;6268;48.188;17.134;2022-08-23T02:56:20;16.80;99.90
12408;DHT22;6268;48.188;17.134;2022-08-23T02:58:49;16.80;99.90
12408;DHT22;6268;48.188;17.134;2022-08-23T03:01:24;16.90;99.90
12408;DHT22;6268;48.188;17.134;2022-08-23T03:03:54;16.80;99.90
12408;DHT22;6268;48.188;17.134;2022-08-23T03:06:23;16.80;99.90
12408;DHT22;6268;48.188;17.134;2022-08-23T03:08:52;16.80;99.90
12408;DHT22;6268;48.188;17.134;2022-08-23T03:11:22;16.80;99.90
12408;DHT22;6268;48.188;17.134;2022-08-23T03:13:54;16.80;99.90
12408;DHT22;6268;48.188;17.134;2022-08-23T03:16:25;16.80;99.90
12408;DHT22;6268;48.188;17.134;2022-08-23T03:18:54;16.80;99.90
12408;DHT22;6268;48.188;17.134;2022-08-23T03:21:22;16.80;99.90
12408;DHT22;6268;48.188;17.134;2022-08-23T03:23:51;16.80;99.90
12408;DHT22;6268;48.188;17.134;2022-08-23T03:26:20;16.80;99.90
12408;DHT22;6268;48.188;17.134;2022-08-23T03:28:49;16.80;99.90
12408;DHT22;6268;48.188;17.134;2022-08-23T03:31:19;16.80;99.90
12408;DHT22;6268;48.188;17.134;2022-08-23T03:33:50;16.80;99.90
12408;DHT22;6268;48.188;17.134;2022-08-23T03:36:19;16.80;99.90
12408;DHT22;6268;48.188;17.134;2022-08-23T03:38:54;16.80;99.90
12408;DHT22;6268;48.188;17.134;2022-08-23T03:41:23;16.80;99.90
12408;DHT22;6268;48.188;17.134;2022-08-23T03:43:52;16.80;99.90
12408;DHT22;6268;48.188;17.134;2022-08-23T03:46:22;16.80;99.90
12408;DHT22;6268;48.188;17.134;2022-08-23T03:48:53;16.80;99.90
12408;DHT22;6268;48.188;17.134;2022-08-23T03:51:27;16.80;99.90
12408;DHT22;6268;48.188;17.134;2022-08-23T03:53:58;16.80;99.90
12408;DHT22;6268;48.188;17.134;2022-08-23T03:56:29;16.80;99.90
12408;DHT22;6268;48.188;17.134;2022-08-23T03:59:04;16.80;99.90
12408;DHT22;6268;48.188;17.134;2022-08-23T04:01:34;16.80;99.90
12408;DHT22;6268;48.188;17.134;2022-08-23T04:04:05;16.80;99.90
12408;DHT22;6268;48.188;17.134;2022-08-23T04:06:33;16.80;99.90
12408;DHT22;6268;48.188;17.134;2022-08-23T04:09:03;16.80;99.90
12408;DHT22;6268;48.188;17.134;2022-08-23T04:11:32;16.80;99.90
12408;DHT22;6268;48.188;17.134;2022-08-23T04:14:00;16.80;99.90
12408;DHT22;6268;48.188;17.134;2022-08-23T04:16:29;16.80;99.90
12408;DHT22;6268;48.188;17.134;2022-08-23T04:19:05;16.80;99.90
12408;DHT22;6268;48.188;17.134;2022-08-23T04:21:37;16.80;99.90
12408;DHT22;6268;48.188;17.134;2022-08-23T04:24:06;16.80;99.90
12408;DHT22;6268;48.188;17.134;2022-08-23T04:26:35;16.80;99.90
12408;DHT22;6268;48.188;17.134;2022-08-23T04:29:04;16.80;99.90
12408;DHT22;6268;48.188;17.134;2022-08-23T04:31:35;16.90;99.90
12408;DHT22;6268;48.188;17.134;2022-08-23T04:34:06;16.90;99.90
12408;DHT22;6268;48.188;17.134;2022-08-23T04:36:40;17.00;99.90
12408;DHT22;6268;48.188;17.134;2022-08-23T04:39:21;17.00;99.90
12408;DHT22;6268;48.188;17.134;2022-08-23T04:41:49;17.10;99.90
12408;DHT22;6268;48.188;17.134;2022-08-23T04:44:40;17.10;99.90
12408;DHT22;6268;48.188;17.134;2022-08-23T04:47:09;17.20;99.90
12408;DHT22;6268;48.188;17.134;2022-08-23T04:49:40;17.30;99.90
12408;DHT22;6268;48.188;17.134;2022-08-23T04:52:08;17.40;99.90
12408;DHT22;6268;48.188;17.134;2022-08-23T04:54:42;17.40;99.90
12408;DHT22;6268;48.188;17.134;2022-08-23T04:57:10;17.40;99.90
12408;DHT22;6268;48.188;17.134;2022-08-23T04:59:41;17.40;99.90
12408;DHT22;6268;48.188;17.134;2022-08-23T05:02:10;17.40;99.90
12408;DHT22;6268;48.188;17.134;2022-08-23T05:04:42;17.40;99.90
12408;DHT22;6268;48.188;17.134;2022-08-23T05:07:11;17.40;99.90
12408;DHT22;6268;48.188;17.134;2022-08-23T05:09:41;17.40;99.90
12408;DHT22;6268;48.188;17.134;2022-08-23T05:12:10;17.50;99.90
12408;DHT22;6268;48.188;17.134;2022-08-23T05:14:38;17.50;99.90
12408;DHT22;6268;48.188;17.134;2022-08-23T05:17:13;17.60;99.90
12408;DHT22;6268;48.188;17.134;2022-08-23T05:19:43;17.60;99.90
12408;DHT22;6268;48.188;17.134;2022-08-23T05:22:13;17.60;99.90
12408;DHT22;6268;48.188;17.134;2022-08-23T05:24:42;17.70;99.90
12408;DHT22;6268;48.188;17.134;2022-08-23T05:27:10;17.80;99.90
12408;DHT22;6268;48.188;17.134;2022-08-23T05:29:39;17.90;99.90
12408;DHT22;6268;48.188;17.134;2022-08-23T05:32:08;17.90;99.90
12408;DHT22;6268;48.188;17.134;2022-08-23T05:34:37;18.00;99.90
12408;DHT22;6268;48.188;17.134;2022-08-23T05:37:08;18.10;99.90
12408;DHT22;6268;48.188;17.134;2022-08-23T05:39:36;18.20;99.90
12408;DHT22;6268;48.188;17.134;2022-08-23T05:42:07;18.20;99.90
12408;DHT22;6268;48.188;17.134;2022-08-23T05:44:37;18.20;99.90
12408;DHT22;6268;48.188;17.134;2022-08-23T05:47:08;18.40;99.90
12408;DHT22;6268;48.188;17.134;2022-08-23T05:49:41;18.60;99.90
12408;DHT22;6268;48.188;17.134;2022-08-23T05:52:12;18.80;99.90
12408;DHT22;6268;48.188;17.134;2022-08-23T05:54:41;19.00;99.90
12408;DHT22;6268;48.188;17.134;2022-08-23T05:57:10;19.10;99.90
12408;DHT22;6268;48.188;17.134;2022-08-23T05:59:39;19.40;99.90
12408;DHT22;6268;48.188;17.134;2022-08-23T06:02:08;20.00;99.90
12408;DHT22;6268;48.188;17.134;2022-08-23T06:04:37;20.50;99.90
12408;DHT22;6268;48.188;17.134;2022-08-23T06:07:07;20.60;99.90
12408;DHT22;6268;48.188;17.134;2022-08-23T06:09:38;20.50;99.90
12408;DHT22;6268;48.188;17.134;2022-08-23T06:12:07;20.40;99.90
12408;DHT22;6268;48.188;17.134;2022-08-23T06:14:36;20.40;99.90
12408;DHT22;6268;48.188;17.134;2022-08-23T06:17:05;20.30;99.90
12408;DHT22;6268;48.188;17.134;2022-08-23T06:19:34;20.30;99.90
12408;DHT22;6268;48.188;17.134;2022-08-23T06:22:03;20.40;99.90
12408;DHT22;6268;48.188;17.134;2022-08-23T06:24:32;20.50;99.90
12408;DHT22;6268;48.188;17.134;2022-08-23T06:27:02;20.70;99.90
12408;DHT22;6268;48.188;17.134;2022-08-23T06:29:31;20.80;99.90
12408;DHT22;6268;48.188;17.134;2022-08-23T06:31:59;20.80;99.90
12408;DHT22;6268;48.188;17.134;2022-08-23T06:34:31;20.80;99.90
12408;DHT22;6268;48.188;17.134;2022-08-23T06:37:02;20.80;99.90
12408;DHT22;6268;48.188;17.134;2022-08-23T06:39:33;20.90;99.90
12408;DHT22;6268;48.188;17.134;2022-08-23T06:42:07;21.10;99.90
12408;DHT22;6268;48.188;17.134;2022-08-23T06:44:57;21.10;99.90
12408;DHT22;6268;48.188;17.134;2022-08-23T06:47:26;21.00;99.90
12408;DHT22;6268;48.188;17.134;2022-08-23T06:49:54;21.00;99.90
12408;DHT22;6268;48.188;17.134;2022-08-23T06:52:25;20.90;99.90
12408;DHT22;6268;48.188;17.134;2022-08-23T06:54:54;20.80;99.90
12408;DHT22;6268;48.188;17.134;2022-08-23T06:57:25;20.80;99.90
12408;DHT22;6268;48.188;17.134;2022-08-23T06:59:54;21.20;99.90
12408;DHT22;6268;48.188;17.134;2022-08-23T07:02:22;21.80;99.90
12408;DHT22;6268;48.188;17.134;2022-08-23T07:04:52;22.50;99.90
12408;DHT22;6268;48.188;17.134;2022-08-23T07:07:21;23.00;99.90
12408;DHT22;6268;48.188;17.134;2022-08-23T07:10:07;23.30;99.90
12408;DHT22;6268;48.188;17.134;2022-08-23T07:12:41;24.00;99.90
12408;DHT22;6268;48.188;17.134;2022-08-23T07:15:11;24.60;99.90
12408;DHT22;6268;48.188;17.134;2022-08-23T07:17:39;24.70;99.90
12408;DHT22;6268;48.188;17.134;2022-08-23T07:20:08;24.40;99.90
12408;DHT22;6268;48.188;17.134;2022-08-23T07:22:37;24.10;99.90
12408;DHT22;6268;48.188;17.134;2022-08-23T07:25:07;23.60;99.90
12408;DHT22;6268;48.188;17.134;2022-08-23T07:27:36;23.30;99.90
12408;DHT22;6268;48.188;17.134;2022-08-23T07:30:08;22.90;99.90
12408;DHT22;6268;48.188;17.134;2022-08-23T07:32:37;22.80;99.90
12408;DHT22;6268;48.188;17.134;2022-08-23T07:35:06;22.80;99.90
12408;DHT22;6268;48.188;17.134;2022-08-23T07:37:35;23.00;99.90
12408;DHT22;6268;48.188;17.134;2022-08-23T07:40:05;23.10;99.90
12408;DHT22;6268;48.188;17.134;2022-08-23T07:42:46;22.90;99.90
12408;DHT22;6268;48.188;17.134;2022-08-23T07:45:16;22.80;99.90
12408;DHT22;6268;48.188;17.134;2022-08-23T07:47:49;22.50;99.90
12408;DHT22;6268;48.188;17.134;2022-08-23T07:50:18;22.40;99.90
12408;DHT22;6268;48.188;17.134;2022-08-23T07:52:47;22.30;99.90
12408;DHT22;6268;48.188;17.134;2022-08-23T07:55:16;22.10;99.90
12408;DHT22;6268;48.188;17.134;2022-08-23T07:57:45;22.00;99.90
12408;DHT22;6268;48.188;17.134;2022-08-23T08:00:14;21.90;99.90
12408;DHT22;6268;48.188;17.134;2022-08-23T08:02:44;22.00;99.90
12408;DHT22;6268;48.188;17.134;2022-08-23T08:05:13;21.90;99.90
12408;DHT22;6268;48.188;17.134;2022-08-23T08:07:47;21.80;99.90
12408;DHT22;6268;48.188;17.134;2022-08-23T08:10:16;21.80;99.90
12408;DHT22;6268;48.188;17.134;2022-08-23T08:12:45;21.80;99.90
12408;DHT22;6268;48.188;17.134;2022-08-23T08:15:13;21.80;99.90
12408;DHT22;6268;48.188;17.134;2022-08-23T08:17:46;21.70;99.90
12408;DHT22;6268;48.188;17.134;2022-08-23T08:20:15;21.70;99.90
12408;DHT22;6268;48.188;17.134;2022-08-23T08:22:44;21.80;99.90
12408;DHT22;6268;48.188;17.134;2022-08-23T08:25:24;21.70;99.90
12408;DHT22;6268;48.188;17.134;2022-08-23T08:27:53;21.80;99.90
12408;DHT22;6268;48.188;17.134;2022-08-23T08:30:23;21.70;99.90
12408;DHT22;6268;48.188;17.134;2022-08-23T08:32:52;21.70;99.90
12408;DHT22;6268;48.188;17.134;2022-08-23T08:35:20;21.80;99.90
12408;DHT22;6268;48.188;17.134;2022-08-23T08:37:50;21.80;99.90
12408;DHT22;6268;48.188;17.134;2022-08-23T08:40:23;21.80;99.90
12408;DHT22;6268;48.188;17.134;2022-08-23T08:43:10;21.80;99.90
12408;DHT22;6268;48.188;17.134;2022-08-23T08:45:59;21.70;99.90
12408;DHT22;6268;48.188;17.134;2022-08-23T08:48:39;21.70;99.90
12408;DHT22;6268;48.188;17.134;2022-08-23T08:51:31;21.60;99.90
12408;DHT22;6268;48.188;17.134;2022-08-23T08:54:11;21.70;99.90
12408;DHT22;6268;48.188;17.134;2022-08-23T08:56:42;21.90;99.90
12408;DHT22;6268;48.188;17.134;2022-08-23T08:59:18;22.00;99.90
12408;DHT22;6268;48.188;17.134;2022-08-23T09:01:52;22.10;99.90
12408;DHT22;6268;48.188;17.134;2022-08-23T09:04:20;22.20;99.90
12408;DHT22;6268;48.188;17.134;2022-08-23T09:06:54;22.40;99.90
12408;DHT22;6268;48.188;17.134;2022-08-23T09:12:59;22.80;99.90
12408;DHT22;6268;48.188;17.134;2022-08-23T09:15:45;22.90;99.90
12408;DHT22;6268;48.188;17.134;2022-08-23T09:18:26;23.00;99.90
12408;DHT22;6268;48.188;17.134;2022-08-23T09:21:03;22.90;99.90
12408;DHT22;6268;48.188;17.134;2022-08-23T09:23:37;23.10;99.90
12408;DHT22;6268;48.188;17.134;2022-08-23T09:26:19;23.20;99.90
12408;DHT22;6268;48.188;17.134;2022-08-23T09:28:53;23.20;99.90
12408;DHT22;6268;48.188;17.134;2022-08-23T09:31:38;23.20;99.90
12408;DHT22;6268;48.188;17.134;2022-08-23T09:34:14;23.10;99.90
12408;DHT22;6268;48.188;17.134;2022-08-23T09:36:45;23.00;99.90
12408;DHT22;6268;48.188;17.134;2022-08-23T09:39:27;22.90;99.90
12408;DHT22;6268;48.188;17.134;2022-08-23T09:41:57;22.70;99.90
12408;DHT22;6268;48.188;17.134;2022-08-23T09:44:34;22.60;99.90
12408;DHT22;6268;48.188;17.134;2022-08-23T09:47:10;22.70;99.90
12408;DHT22;6268;48.188;17.134;2022-08-23T09:49:44;22.80;99.90
12408;DHT22;6268;48.188;17.134;2022-08-23T09:52:20;22.90;99.90
12408;DHT22;6268;48.188;17.134;2022-08-23T09:54:56;23.00;99.90
12408;DHT22;6268;48.188;17.134;2022-08-23T09:57:28;23.10;99.90
12408;DHT22;6268;48.188;17.134;2022-08-23T10:00:03;23.20;99.90
12408;DHT22;6268;48.188;17.134;2022-08-23T10:02:49;23.40;99.90
12408;DHT22;6268;48.188;17.134;2022-08-23T10:05:35;24.00;99.90
12408;DHT22;6268;48.188;17.134;2022-08-23T10:08:05;24.70;99.90
12408;DHT22;6268;48.188;17.134;2022-08-23T10:10:40;25.20;99.90
12408;DHT22;6268;48.188;17.134;2022-08-23T10:13:17;25.20;99.90
12408;DHT22;6268;48.188;17.134;2022-08-23T10:15:54;25.60;99.90
12408;DHT22;6268;48.188;17.134;2022-08-23T10:18:47;26.30;99.90
12408;DHT22;6268;48.188;17.134;2022-08-23T10:21:27;26.70;99.90
12408;DHT22;6268;48.188;17.134;2022-08-23T10:24:16;26.80;99.90
12408;DHT22;6268;48.188;17.134;2022-08-23T10:27:03;27.00;99.90
12408;DHT22;6268;48.188;17.134;2022-08-23T10:30:04;26.80;99.90
12408;DHT22;6268;48.188;17.134;2022-08-23T10:32:44;26.40;99.90
12408;DHT22;6268;48.188;17.134;2022-08-23T10:35:30;26.00;99.90
12408;DHT22;6268;48.188;17.134;2022-08-23T10:38:20;26.00;99.90
12408;DHT22;6268;48.188;17.134;2022-08-23T10:41:05;25.80;99.90
12408;DHT22;6268;48.188;17.134;2022-08-23T10:43:49;25.60;99.90
12408;DHT22;6268;48.188;17.134;2022-08-23T10:46:22;25.40;99.90
12408;DHT22;6268;48.188;17.134;2022-08-23T10:48:55;25.30;99.90
12408;DHT22;6268;48.188;17.134;2022-08-23T10:51:29;25.00;99.90
12408;DHT22;6268;48.188;17.134;2022-08-23T10:54:09;25.00;99.90
12408;DHT22;6268;48.188;17.134;2022-08-23T10:56:44;24.80;99.90
12408;DHT22;6268;48.188;17.134;2022-08-23T10:59:20;24.60;99.90
12408;DHT22;6268;48.188;17.134;2022-08-23T11:01:54;24.50;99.90
12408;DHT22;6268;48.188;17.134;2022-08-23T11:04:39;24.40;99.90
12408;DHT22;6268;48.188;17.134;2022-08-23T11:07:20;24.20;99.90
12408;DHT22;6268;48.188;17.134;2022-08-23T11:10:07;24.20;99.90
12408;DHT22;6268;48.188;17.134;2022-08-23T11:12:52;24.20;99.90
12408;DHT22;6268;48.188;17.134;2022-08-23T11:15:30;24.30;99.90
12408;DHT22;6268;48.188;17.134;2022-08-23T11:18:35;24.40;99.90
12408;DHT22;6268;48.188;17.134;2022-08-23T11:21:10;24.40;99.90
12408;DHT22;6268;48.188;17.134;2022-08-23T11:24:33;24.40;99.90
12408;DHT22;6268;48.188;17.134;2022-08-23T11:27:34;24.30;99.90
12408;DHT22;6268;48.188;17.134;2022-08-23T11:33:17;24.10;99.90
12408;DHT22;6268;48.188;17.134;2022-08-23T11:35:53;24.00;99.90
12408;DHT22;6268;48.188;17.134;2022-08-23T11:39:12;24.10;99.90
12408;DHT22;6268;48.188;17.134;2022-08-23T11:42:04;24.00;99.90
12408;DHT22;6268;48.188;17.134;2022-08-23T11:44:39;24.00;99.90
12408;DHT22;6268;48.188;17.134;2022-08-23T11:47:26;24.00;99.90
12408;DHT22;6268;48.188;17.134;2022-08-23T11:50:17;24.10;99.90
12408;DHT22;6268;48.188;17.134;2022-08-23T11:53:04;24.10;99.90
12408;DHT22;6268;48.188;17.134;2022-08-23T11:56:11;24.00;99.90
12408;DHT22;6268;48.188;17.134;2022-08-23T11:59:02;24.00;99.90
12408;DHT22;6268;48.188;17.134;2022-08-23T12:01:44;24.10;99.90
12408;DHT22;6268;48.188;17.134;2022-08-23T12:04:33;24.30;99.90
12408;DHT22;6268;48.188;17.134;2022-08-23T12:07:05;24.30;99.90
12408;DHT22;6268;48.188;17.134;2022-08-23T12:09:51;24.40;99.90
12408;DHT22;6268;48.188;17.134;2022-08-23T12:12:30;24.40;99.90
12408;DHT22;6268;48.188;17.134;2022-08-23T12:15:09;24.50;99.90
12408;DHT22;6268;48.188;17.134;2022-08-23T12:18:11;24.50;99.90
12408;DHT22;6268;48.188;17.134;2022-08-23T12:20:46;24.60;99.90
12408;DHT22;6268;48.188;17.134;2022-08-23T12:23:19;24.60;99.90
12408;DHT22;6268;48.188;17.134;2022-08-23T12:25:59;24.50;99.90
12408;DHT22;6268;48.188;17.134;2022-08-23T12:28:40;24.40;99.90
12408;DHT22;6268;48.188;17.134;2022-08-23T12:31:22;24.30;99.90
12408;DHT22;6268;48.188;17.134;2022-08-23T12:34:14;24.40;99.90
12408;DHT22;6268;48.188;17.134;2022-08-23T12:36:54;24.30;99.90
12408;DHT22;6268;48.188;17.134;2022-08-23T12:39:37;24.20;99.90
12408;DHT22;6268;48.188;17.134;2022-08-23T12:42:11;24.20;99.90
12408;DHT22;6268;48.188;17.134;2022-08-23T12:44:43;24.10;99.90
12408;DHT22;6268;48.188;17.134;2022-08-23T12:47:16;24.00;99.90
12408;DHT22;6268;48.188;17.134;2022-08-23T12:49:57;23.90;99.90
12408;DHT22;6268;48.188;17.134;2022-08-23T12:52:29;23.80;99.90
12408;DHT22;6268;48.188;17.134;2022-08-23T12:54:59;23.70;99.90
12408;DHT22;6268;48.188;17.134;2022-08-23T12:57:34;23.50;99.90
12408;DHT22;6268;48.188;17.134;2022-08-23T13:00:17;23.40;99.90
12408;DHT22;6268;48.188;17.134;2022-08-23T13:02:54;23.40;99.90
12408;DHT22;6268;48.188;17.134;2022-08-23T13:05:36;23.40;99.90
12408;DHT22;6268;48.188;17.134;2022-08-23T13:08:15;23.40;99.90
12408;DHT22;6268;48.188;17.134;2022-08-23T13:11:01;23.30;99.90
12408;DHT22;6268;48.188;17.134;2022-08-23T13:13:36;23.20;99.90
12408;DHT22;6268;48.188;17.134;2022-08-23T13:16:23;23.10;99.90
12408;DHT22;6268;48.188;17.134;2022-08-23T13:19:12;23.00;99.90
12408;DHT22;6268;48.188;17.134;2022-08-23T13:21:45;23.10;99.90
12408;DHT22;6268;48.188;17.134;2022-08-23T13:24:32;22.90;99.90
12408;DHT22;6268;48.188;17.134;2022-08-23T13:27:14;22.80;99.90
12408;DHT22;6268;48.188;17.134;2022-08-23T13:29:54;22.80;99.90
12408;DHT22;6268;48.188;17.134;2022-08-23T13:32:35;22.80;99.90
12408;DHT22;6268;48.188;17.134;2022-08-23T13:35:29;22.70;99.90
12408;DHT22;6268;48.188;17.134;2022-08-23T13:38:13;22.70;99.90
12408;DHT22;6268;48.188;17.134;2022-08-23T13:40:54;22.70;99.90
12408;DHT22;6268;48.188;17.134;2022-08-23T13:43:32;22.70;99.90
12408;DHT22;6268;48.188;17.134;2022-08-23T13:46:11;22.70;99.90
12408;DHT22;6268;48.188;17.134;2022-08-23T13:48:50;22.70;99.90
12408;DHT22;6268;48.188;17.134;2022-08-23T13:51:29;22.70;99.90
12408;DHT22;6268;48.188;17.134;2022-08-23T13:54:06;22.60;99.90
12408;DHT22;6268;48.188;17.134;2022-08-23T13:56:41;22.70;99.90
12408;DHT22;6268;48.188;17.134;2022-08-23T13:59:23;22.70;99.90
12408;DHT22;6268;48.188;17.134;2022-08-23T14:01:59;22.70;99.90
12408;DHT22;6268;48.188;17.134;2022-08-23T14:04:30;22.80;99.90
12408;DHT22;6268;48.188;17.134;2022-08-23T14:06:59;23.00;99.90
12408;DHT22;6268;48.188;17.134;2022-08-23T14:09:29;23.10;99.90
12408;DHT22;6268;48.188;17.134;2022-08-23T14:12:02;23.10;99.90
12408;DHT22;6268;48.188;17.134;2022-08-23T14:14:36;23.20;99.90
12408;DHT22;6268;48.188;17.134;2022-08-23T14:17:06;23.10;99.90
12408;DHT22;6268;48.188;17.134;2022-08-23T14:19:39;23.10;99.90
12408;DHT22;6268;48.188;17.134;2022-08-23T14:22:29;23.20;99.90
12408;DHT22;6268;48.188;17.134;2022-08-23T14:24:59;23.20;99.90
12408;DHT22;6268;48.188;17.134;2022-08-23T14:27:28;23.20;99.90
12408;DHT22;6268;48.188;17.134;2022-08-23T14:29:56;23.20;99.90
12408;DHT22;6268;48.188;17.134;2022-08-23T14:32:26;23.20;99.90
12408;DHT22;6268;48.188;17.134;2022-08-23T14:34:54;23.10;99.90
12408;DHT22;6268;48.188;17.134;2022-08-23T14:37:23;23.10;99.90
12408;DHT22;6268;48.188;17.134;2022-08-23T14:40:14;23.00;99.90
12408;DHT22;6268;48.188;17.134;2022-08-23T14:42:43;22.90;99.90
12408;DHT22;6268;48.188;17.134;2022-08-23T14:45:14;22.90;99.90
12408;DHT22;6268;48.188;17.134;2022-08-23T14:47:44;22.80;99.90
12408;DHT22;6268;48.188;17.134;2022-08-23T14:50:13;22.80;99.90
12408;DHT22;6268;48.188;17.134;2022-08-23T14:52:45;22.80;99.90
12408;DHT22;6268;48.188;17.134;2022-08-23T14:55:15;22.80;99.90
12408;DHT22;6268;48.188;17.134;2022-08-23T14:57:49;22.90;99.90
12408;DHT22;6268;48.188;17.134;2022-08-23T15:00:17;22.90;99.90
12408;DHT22;6268;48.188;17.134;2022-08-23T15:02:48;22.90;99.90
12408;DHT22;6268;48.188;17.134;2022-08-23T15:05:17;22.80;99.90
12408;DHT22;6268;48.188;17.134;2022-08-23T15:07:46;22.90;99.90
12408;DHT22;6268;48.188;17.134;2022-08-23T15:10:16;22.80;99.90
12408;DHT22;6268;48.188;17.134;2022-08-23T15:13:05;22.80;99.90
12408;DHT22;6268;48.188;17.134;2022-08-23T15:15:53;22.80;99.90
12408;DHT22;6268;48.188;17.134;2022-08-23T15:18:22;22.80;99.90
12408;DHT22;6268;48.188;17.134;2022-08-23T15:20:50;22.80;99.90
12408;DHT22;6268;48.188;17.134;2022-08-23T15:23:19;22.70;99.90
12408;DHT22;6268;48.188;17.134;2022-08-23T15:25:50;22.70;99.90
12408;DHT22;6268;48.188;17.134;2022-08-23T15:28:20;22.70;99.90
12408;DHT22;6268;48.188;17.134;2022-08-23T15:30:51;22.60;99.90
12408;DHT22;6268;48.188;17.134;2022-08-23T15:33:20;22.60;99.90
12408;DHT22;6268;48.188;17.134;2022-08-23T15:35:56;22.60;99.90
12408;DHT22;6268;48.188;17.134;2022-08-23T15:38:30;22.50;99.90
12408;DHT22;6268;48.188;17.134;2022-08-23T15:41:00;22.50;99.90
12408;DHT22;6268;48.188;17.134;2022-08-23T15:43:29;22.50;99.90
12408;DHT22;6268;48.188;17.134;2022-08-23T15:46:04;22.40;99.90
12408;DHT22;6268;48.188;17.134;2022-08-23T15:48:36;22.40;99.90
12408;DHT22;6268;48.188;17.134;2022-08-23T15:51:11;22.40;99.90
12408;DHT22;6268;48.188;17.134;2022-08-23T15:53:40;22.30;99.90
12408;DHT22;6268;48.188;17.134;2022-08-23T15:56:13;22.30;99.90
12408;DHT22;6268;48.188;17.134;2022-08-23T15:58:45;22.30;99.90
12408;DHT22;6268;48.188;17.134;2022-08-23T16:01:14;22.20;99.90
12408;DHT22;6268;48.188;17.134;2022-08-23T16:03:50;22.20;99.90
12408;DHT22;6268;48.188;17.134;2022-08-23T16:06:19;22.20;99.90
12408;DHT22;6268;48.188;17.134;2022-08-23T16:08:50;22.10;99.90
12408;DHT22;6268;48.188;17.134;2022-08-23T16:11:21;22.10;99.90
12408;DHT22;6268;48.188;17.134;2022-08-23T16:13:50;22.00;99.90
12408;DHT22;6268;48.188;17.134;2022-08-23T16:16:24;21.90;99.90
12408;DHT22;6268;48.188;17.134;2022-08-23T16:18:57;21.80;99.90
12408;DHT22;6268;48.188;17.134;2022-08-23T16:21:28;21.80;99.90